createdAt,value
2018-08-03T00:01:26.726Z,22.10
2018-08-03T00:03:57.540Z,22.09
2018-08-03T00:06:28.128Z,22.16
2018-08-03T00:08:58.593Z,22.19
2018-08-03T00:11:28.973Z,22.19
2018-08-03T00:13:59.581Z,22.15
2018-08-03T00:16:30.108Z,22.11
2018-08-03T00:19:00.589Z,22.07
2018-08-03T00:21:31.301Z,22.10
2018-08-03T00:24:01.690Z,22.04
2018-08-03T00:26:32.181Z,22.06
2018-08-03T00:29:02.679Z,22.12
2018-08-03T00:31:33.252Z,22.12
2018-08-03T00:34:03.852Z,22.12
2018-08-03T00:36:34.495Z,22.18
2018-08-03T00:39:07.011Z,22.19
2018-08-03T00:41:37.817Z,22.12
2018-08-03T00:44:08.304Z,22.08
2018-08-03T00:46:39.092Z,22.14
2018-08-03T00:49:09.730Z,22.11
2018-08-03T00:51:40.190Z,22.13
2018-08-03T00:54:10.685Z,22.13
2018-08-03T00:56:41.031Z,22.17
2018-08-03T00:59:11.513Z,22.19
2018-08-03T01:01:42.063Z,22.24
2018-08-03T01:04:12.561Z,22.22
2018-08-03T01:06:42.956Z,22.11
2018-08-03T01:09:13.994Z,22.06
2018-08-03T01:11:44.598Z,21.96
2018-08-03T01:14:15.255Z,21.96
2018-08-03T01:16:45.579Z,21.97
2018-08-03T01:19:16.170Z,21.95
2018-08-03T01:21:46.911Z,21.91
2018-08-03T01:24:17.244Z,21.93
2018-08-03T01:26:47.678Z,21.93
2018-08-03T01:29:18.462Z,21.88
2018-08-03T01:31:48.956Z,21.81
2018-08-03T01:34:19.440Z,21.80
2018-08-03T01:36:49.838Z,21.83
2018-08-03T01:39:20.332Z,21.83
2018-08-03T01:41:50.909Z,21.80
2018-08-03T01:44:21.537Z,21.88
2018-08-03T01:46:52.134Z,21.89
2018-08-03T01:49:22.698Z,21.85
2018-08-03T01:51:53.223Z,21.86
2018-08-03T01:54:23.944Z,21.88
2018-08-03T01:56:54.387Z,21.85
2018-08-03T01:59:25.288Z,21.86
2018-08-03T02:01:56.414Z,21.85
2018-08-03T02:04:27.095Z,21.76
2018-08-03T02:06:57.893Z,21.71
2018-08-03T02:09:28.340Z,21.64
2018-08-03T02:11:58.948Z,21.66
2018-08-03T02:14:29.426Z,21.62
2018-08-03T02:17:00.015Z,21.54
2018-08-03T02:19:30.428Z,21.54
2018-08-03T02:22:00.825Z,21.57
2018-08-03T02:24:31.337Z,21.52
2018-08-03T02:27:01.782Z,21.51
2018-08-03T02:29:32.240Z,21.48
2018-08-03T02:32:02.555Z,21.52
2018-08-03T02:34:33.008Z,21.52
2018-08-03T02:37:03.649Z,21.48
2018-08-03T02:39:34.047Z,21.39
2018-08-03T02:42:04.434Z,21.30
2018-08-03T02:44:34.999Z,21.25
2018-08-03T02:47:05.549Z,21.29
2018-08-03T02:49:36.146Z,21.34
2018-08-03T02:52:06.435Z,21.32
2018-08-03T02:54:36.845Z,21.28
2018-08-03T02:57:07.619Z,21.35
2018-08-03T02:59:39.105Z,21.46
2018-08-03T03:02:09.485Z,21.37
2018-08-03T03:04:40.202Z,21.35
2018-08-03T03:07:10.670Z,21.42
2018-08-03T03:09:41.243Z,21.38
2018-08-03T03:12:11.726Z,21.39
2018-08-03T03:14:42.229Z,21.31
2018-08-03T03:17:12.854Z,21.23
2018-08-03T03:19:43.435Z,21.14
2018-08-03T03:22:14.926Z,21.12
2018-08-03T03:24:45.284Z,21.16
2018-08-03T03:27:15.590Z,21.17
2018-08-03T03:29:46.127Z,21.17
2018-08-03T03:32:16.719Z,21.14
2018-08-03T03:34:47.084Z,21.06
2018-08-03T03:37:17.589Z,21.11
2018-08-03T03:39:48.924Z,21.08
2018-08-03T03:42:19.319Z,21.10
2018-08-03T03:44:49.822Z,21.10
2018-08-03T03:47:20.304Z,21.12
2018-08-03T03:49:50.922Z,21.12
2018-08-03T03:52:21.557Z,21.21
2018-08-03T03:54:51.926Z,21.44
2018-08-03T03:57:23.118Z,21.55
2018-08-03T03:59:53.748Z,21.70
2018-08-03T04:02:24.267Z,21.84
2018-08-03T04:04:54.839Z,22.09
2018-08-03T04:07:25.394Z,22.30
2018-08-03T04:09:56.168Z,22.69
2018-08-03T04:12:26.536Z,23.05
2018-08-03T04:14:56.935Z,23.36
2018-08-03T04:17:27.288Z,23.76
2018-08-03T04:19:57.637Z,23.91
2018-08-03T04:22:28.147Z,23.93
2018-08-03T04:24:58.534Z,24.24
2018-08-03T04:27:29.148Z,24.72
2018-08-03T04:29:59.588Z,24.98
2018-08-03T04:32:29.936Z,25.07
2018-08-03T04:35:00.770Z,25.22
2018-08-03T04:37:32.075Z,25.97
2018-08-03T04:40:02.865Z,25.27
2018-08-03T04:42:33.242Z,24.92
2018-08-03T04:45:03.873Z,24.69
2018-08-03T04:47:34.237Z,24.22
2018-08-03T04:50:05.046Z,24.25
2018-08-03T04:52:35.505Z,24.14
2018-08-03T04:55:05.800Z,23.59
2018-08-03T04:57:36.389Z,23.48
2018-08-03T05:00:07.047Z,23.19
2018-08-03T05:02:37.421Z,23.28
2018-08-03T05:05:07.695Z,23.38
2018-08-03T05:07:38.831Z,23.38
2018-08-03T05:10:09.112Z,23.56
2018-08-03T05:12:39.525Z,23.77
2018-08-03T05:15:10.118Z,23.66
2018-08-03T05:17:41.519Z,23.80
2018-08-03T05:20:11.843Z,23.98
2018-08-03T05:22:42.326Z,24.24
2018-08-03T05:25:12.652Z,23.89
2018-08-03T05:27:43.019Z,24.12
2018-08-03T05:30:13.727Z,24.06
2018-08-03T05:32:44.370Z,24.18
2018-08-03T05:35:14.882Z,24.50
2018-08-03T05:37:46.391Z,24.88
2018-08-03T05:40:16.936Z,25.49
2018-08-03T05:42:47.482Z,25.43
2018-08-03T05:45:17.816Z,25.79
2018-08-03T05:47:48.360Z,26.39
2018-08-03T05:50:18.784Z,27.09
2018-08-03T05:52:49.198Z,27.34
2018-08-03T05:55:19.585Z,28.25
2018-08-03T05:57:50.144Z,28.37
2018-08-03T06:00:20.649Z,29.43
2018-08-03T06:02:50.996Z,30.08
2018-08-03T06:05:21.600Z,30.45
2018-08-03T06:07:52.168Z,31.02
2018-08-03T06:10:22.677Z,31.56
2018-08-03T06:12:53.128Z,31.84
2018-08-03T06:15:23.603Z,32.76
2018-08-03T06:17:54.181Z,33.40
2018-08-03T06:20:24.548Z,32.90
2018-08-03T06:22:55.350Z,32.40
2018-08-03T06:25:25.821Z,32.26
2018-08-03T06:27:56.155Z,32.83
2018-08-03T06:30:26.715Z,32.85
2018-08-03T06:32:57.319Z,32.77
2018-08-03T06:35:27.712Z,33.23
2018-08-03T06:37:58.294Z,33.43
2018-08-03T06:40:28.960Z,34.08
2018-08-03T06:42:59.398Z,33.79
2018-08-03T06:45:29.784Z,33.62
2018-08-03T06:48:00.612Z,32.37
2018-08-03T06:50:31.245Z,31.59
2018-08-03T06:53:01.761Z,31.28
2018-08-03T06:55:32.471Z,30.96
2018-08-03T06:58:03.001Z,30.64
2018-08-03T07:00:33.499Z,30.47
2018-08-03T07:03:03.818Z,31.46
2018-08-03T07:05:34.384Z,31.44
2018-08-03T07:08:05.096Z,31.81
2018-08-03T07:10:35.434Z,32.86
2018-08-03T07:13:05.746Z,34.39
2018-08-03T07:15:36.249Z,34.53
2018-08-03T07:18:06.819Z,35.30
2018-08-03T07:20:37.520Z,35.18
2018-08-03T07:23:08.113Z,35.80
2018-08-03T07:25:38.620Z,35.64
2018-08-03T07:28:09.000Z,35.41
2018-08-03T07:30:39.499Z,35.25
2018-08-03T13:56:08.920Z,26.33
2018-08-03T13:58:39.896Z,26.48
2018-08-03T14:01:21.438Z,26.50
2018-08-03T14:03:52.082Z,26.61
2018-08-03T14:06:22.710Z,26.70
2018-08-03T14:08:53.415Z,26.79
2018-08-03T14:11:24.300Z,26.92
2018-08-03T14:13:54.925Z,27.03
2018-08-03T14:16:25.571Z,27.11
2018-08-03T14:18:56.059Z,27.04
2018-08-03T14:21:26.676Z,26.70
2018-08-03T14:23:56.998Z,26.48
2018-08-03T14:26:27.493Z,26.50
2018-08-03T14:28:58.240Z,26.71
2018-08-03T14:31:29.006Z,26.83
2018-08-03T14:33:59.679Z,26.87
2018-08-03T14:36:30.464Z,26.73
2018-08-03T14:39:01.085Z,26.74
2018-08-03T14:41:31.761Z,26.76
2018-08-03T14:44:02.279Z,26.61
2018-08-03T14:46:32.759Z,26.79
2018-08-03T14:49:03.408Z,26.89
2018-08-03T14:51:34.276Z,27.03
2018-08-03T14:54:04.881Z,27.15
2018-08-03T14:56:35.827Z,27.27
2018-08-03T14:59:06.899Z,27.34
2018-08-03T15:01:38.093Z,27.47
2018-08-03T15:04:09.010Z,27.72
2018-08-03T15:06:39.496Z,27.79
2018-08-03T15:09:11.639Z,27.89
2018-08-03T15:11:42.505Z,28.00
2018-08-03T15:14:13.193Z,28.24
2018-08-03T15:16:43.662Z,28.36
2018-08-03T15:19:14.099Z,28.56
2018-08-03T15:21:44.597Z,28.74
2018-08-03T15:24:15.173Z,28.80
2018-08-03T15:26:45.628Z,29.03
2018-08-03T15:29:16.127Z,29.19
2018-08-03T15:31:46.791Z,29.24
2018-08-03T15:34:17.635Z,29.20
2018-08-03T15:36:48.413Z,29.08
2018-08-03T15:39:18.907Z,28.91
2018-08-03T15:41:49.600Z,28.32
2018-08-03T15:44:20.141Z,28.01
2018-08-03T15:46:50.886Z,27.90
2018-08-03T15:49:21.898Z,27.83
2018-08-03T15:51:52.562Z,27.63
2018-08-03T15:54:23.315Z,27.17
2018-08-03T15:56:54.118Z,27.06
2018-08-03T15:59:24.603Z,27.05
2018-08-03T16:01:55.375Z,26.90
2018-08-03T16:04:25.975Z,26.89
2018-08-03T16:06:56.580Z,26.97
2018-08-03T16:09:27.073Z,27.05
2018-08-03T16:11:57.557Z,27.13
2018-08-03T16:14:28.228Z,27.05
2018-08-03T16:16:58.853Z,26.84
2018-08-03T16:19:30.003Z,26.65
2018-08-03T16:22:00.496Z,26.54
2018-08-03T16:24:31.006Z,26.64
2018-08-03T16:27:01.711Z,26.77
2018-08-03T16:29:32.290Z,26.71
2018-08-03T16:32:03.208Z,26.72
2018-08-03T16:34:33.858Z,26.71
2018-08-03T16:37:04.407Z,26.74
2018-08-03T16:39:34.985Z,26.76
2018-08-03T16:42:05.776Z,26.80
2018-08-03T16:44:36.721Z,26.91
2018-08-03T16:47:07.328Z,26.97
2018-08-03T16:49:37.895Z,27.01
2018-08-03T16:52:08.745Z,27.17
2018-08-03T16:54:39.460Z,26.98
2018-08-03T16:57:10.280Z,26.90
2018-08-03T16:59:40.796Z,26.97
2018-08-03T17:02:11.010Z,26.98
2018-08-03T17:04:41.478Z,27.00
2018-08-03T17:07:12.572Z,26.97
2018-08-03T17:09:43.083Z,26.83
2018-08-03T17:12:13.478Z,26.77
2018-08-03T17:14:44.272Z,26.61
2018-08-03T17:17:14.839Z,26.57
2018-08-03T17:19:45.578Z,26.53
2018-08-03T17:22:16.189Z,26.40
2018-08-03T17:24:46.870Z,26.29
2018-08-03T17:27:17.432Z,26.22
2018-08-03T17:29:48.073Z,26.06
2018-08-03T17:32:18.966Z,25.88
2018-08-03T17:34:49.388Z,25.75
2018-08-03T17:37:19.906Z,25.64
2018-08-03T17:39:50.521Z,25.54
2018-08-03T17:42:20.965Z,25.57
2018-08-03T17:44:51.443Z,25.54
2018-08-03T17:47:21.832Z,25.37
2018-08-03T17:49:52.426Z,25.32
2018-08-03T17:52:23.209Z,25.23
2018-08-03T17:54:54.012Z,25.17
2018-08-03T17:57:24.593Z,25.07
2018-08-03T17:59:55.307Z,25.08
2018-08-03T18:02:25.874Z,25.11
2018-08-03T18:05:06.582Z,25.00
2018-08-03T18:07:36.997Z,25.02
2018-08-03T18:10:08.312Z,24.96
2018-08-03T18:12:38.897Z,24.94
2018-08-03T18:15:09.839Z,24.87
2018-08-03T18:17:40.486Z,24.91
2018-08-03T18:20:10.809Z,24.90
2018-08-03T18:22:41.184Z,24.86
2018-08-03T18:25:11.818Z,24.83
2018-08-03T18:27:42.476Z,24.70
2018-08-03T18:30:13.088Z,24.67
2018-08-03T18:36:17.392Z,24.65
2018-08-03T18:38:47.718Z,24.63
2018-08-03T18:41:18.273Z,24.60
2018-08-03T18:43:49.075Z,24.54
2018-08-03T18:46:20.141Z,24.57
2018-08-03T18:48:50.935Z,24.58
2018-08-03T18:51:21.644Z,24.53
2018-08-03T18:53:52.311Z,24.48
2018-08-03T18:56:22.932Z,24.59
2018-08-03T18:58:53.660Z,24.43
2018-08-03T19:01:24.275Z,24.32
2018-08-03T19:03:54.674Z,24.28
2018-08-03T19:06:25.200Z,24.30
2018-08-03T19:08:56.095Z,24.29
2018-08-03T19:11:27.057Z,24.29
2018-08-03T19:13:58.032Z,24.30
2018-08-03T19:16:28.665Z,24.24
2018-08-03T19:18:59.335Z,24.17
2018-08-03T19:21:30.465Z,24.14
2018-08-03T19:24:00.842Z,24.09
2018-08-03T19:26:31.521Z,23.99
2018-08-03T19:29:02.302Z,23.94
2018-08-03T19:31:32.922Z,23.91
2018-08-03T19:34:03.633Z,24.00
2018-08-03T19:36:34.032Z,23.97
2018-08-03T19:39:07.929Z,23.88
2018-08-03T19:41:38.773Z,23.90
2018-08-03T19:44:09.555Z,23.82
2018-08-03T19:46:40.061Z,23.76
2018-08-03T19:49:10.594Z,23.70
2018-08-03T19:51:41.041Z,23.65
2018-08-03T19:54:11.806Z,23.66
2018-08-03T19:56:42.393Z,23.65
2018-08-03T19:59:13.414Z,23.62
2018-08-03T20:01:44.811Z,23.62
2018-08-03T20:04:15.259Z,23.58
2018-08-03T20:06:45.846Z,23.56
2018-08-03T20:09:16.395Z,23.48
2018-08-03T20:11:47.077Z,23.43
2018-08-03T20:14:17.675Z,23.41
2018-08-03T20:16:48.016Z,23.31
2018-08-03T20:19:19.460Z,23.17
2018-08-03T20:21:49.987Z,23.12
2018-08-03T20:24:20.591Z,23.08
2018-08-03T20:26:51.216Z,23.01
2018-08-03T20:29:21.559Z,23.04
2018-08-03T20:31:52.009Z,22.93
2018-08-03T20:34:22.407Z,22.93
2018-08-03T20:36:53.082Z,22.92
2018-08-03T20:39:23.608Z,22.81
2018-08-03T20:41:55.123Z,22.68
2018-08-03T20:44:25.554Z,22.64
2018-08-03T20:46:56.009Z,22.57
2018-08-03T20:49:26.868Z,22.52
2018-08-03T20:51:57.519Z,22.60
2018-08-03T20:54:28.264Z,22.68
2018-08-03T20:56:58.923Z,22.78
2018-08-03T20:59:29.508Z,22.74
2018-08-03T21:01:59.886Z,22.71
2018-08-03T21:04:30.640Z,22.62
2018-08-03T21:07:01.008Z,22.58
2018-08-03T21:09:31.640Z,22.55
2018-08-03T21:12:02.994Z,22.51
2018-08-03T21:14:33.378Z,22.60
2018-08-03T21:17:04.348Z,22.61
2018-08-03T21:19:34.899Z,22.64
2018-08-03T21:22:05.800Z,22.63
2018-08-03T21:24:36.337Z,22.57
2018-08-03T21:27:07.272Z,22.50
2018-08-03T21:29:37.608Z,22.40
2018-08-03T21:32:08.085Z,22.34
2018-08-03T21:34:38.548Z,22.24
2018-08-03T21:37:09.250Z,22.28
2018-08-03T21:39:39.939Z,22.06
2018-08-03T21:42:10.597Z,21.98
2018-08-03T21:44:41.262Z,21.81
2018-08-03T21:47:11.902Z,21.77
2018-08-03T21:49:42.758Z,21.78
2018-08-03T21:52:13.140Z,21.73
2018-08-03T21:54:43.685Z,21.75
2018-08-03T21:57:14.234Z,21.75
2018-08-03T21:59:44.701Z,21.69
2018-08-03T22:02:14.994Z,21.74
2018-08-03T22:04:45.319Z,21.72
2018-08-03T22:07:15.712Z,21.73
2018-08-03T22:09:46.100Z,21.72
2018-08-03T22:12:16.591Z,21.72
2018-08-03T22:14:47.170Z,21.66
2018-08-03T22:17:17.760Z,21.67
2018-08-03T22:19:48.292Z,21.59
2018-08-03T22:22:18.816Z,21.49
2018-08-03T22:24:49.154Z,21.49
2018-08-03T22:27:20.502Z,21.49
2018-08-03T22:29:50.989Z,21.49
2018-08-03T22:32:21.772Z,21.47
2018-08-03T22:34:52.099Z,21.45
2018-08-03T22:37:22.890Z,21.43
2018-08-03T22:39:53.430Z,21.42
2018-08-03T22:42:24.039Z,21.35
2018-08-03T22:44:55.078Z,21.36
2018-08-03T22:47:25.689Z,21.31
2018-08-03T22:49:56.058Z,21.33
2018-08-03T22:52:26.650Z,21.30
2018-08-03T22:54:57.159Z,21.30
2018-08-03T22:57:27.630Z,21.30
2018-08-03T22:59:58.136Z,21.31
2018-08-03T23:02:28.718Z,21.27
2018-08-03T23:04:59.155Z,21.19
2018-08-03T23:07:29.519Z,21.17
2018-08-03T23:10:00.142Z,21.22
2018-08-03T23:12:30.708Z,21.22
2018-08-03T23:15:01.051Z,21.23
2018-08-03T23:17:31.535Z,21.22
2018-08-03T23:20:02.938Z,21.17
2018-08-03T23:22:33.393Z,21.09
2018-08-03T23:25:06.071Z,21.05
2018-08-03T23:27:36.710Z,21.02
2018-08-03T23:30:08.742Z,21.05
2018-08-03T23:32:39.452Z,21.01
2018-08-03T23:35:10.150Z,20.95
2018-08-03T23:37:41.332Z,20.95
2018-08-03T23:40:11.770Z,20.97
2018-08-03T23:42:42.448Z,20.98
2018-08-03T23:45:12.808Z,20.96
2018-08-03T23:47:44.791Z,20.99
2018-08-03T23:50:18.916Z,20.96
2018-08-03T23:52:50.250Z,20.96
2018-08-03T23:55:21.107Z,20.82
2018-08-03T23:57:51.569Z,20.83
